Shipshaw, Canada
Current Conditions -  °F | °C
As of 9:00 PM on Sunday 21 Dec 2014 (Local Time) from CYBG Reporting Station
Light Snow Light Snow  
Wind Chill: 16°   Ceiling: 1700
Heat Index: 16°   Visibility: 6mi
Dew Point: 10°   Wind: 0mph
Humidity: 79%   Direction: NA
Pressure: 30.37"   Gusts: NA
Location:  48.45°N, 71.22°W
Report Text: CYBG 220200Z 00000KT 6SM -SN OVC017 M09/M12 A3037 RMK SC8 SLP301
Loading
Personal Weather Stations






























Interactive Weather Map New forecast layout! Learn more

10-Day Weather Forecast

Advertisements
Track Severe Weather on mobile